createdAt,value
2023-05-13T00:00:29.261Z,99615.61
2023-05-13T00:01:34.426Z,99620.56
2023-05-13T00:02:39.702Z,99620.78
2023-05-13T00:03:45.492Z,99614.79
2023-05-13T00:04:51.041Z,99617.98
2023-05-13T00:05:56.206Z,99623.58
2023-05-13T00:07:01.455Z,99626.27
2023-05-13T00:08:06.622Z,99625.52
2023-05-13T00:09:11.796Z,99623.88
2023-05-13T00:10:16.996Z,99626.97
2023-05-13T00:11:22.133Z,99629.88
2023-05-13T00:12:27.317Z,99625.93
2023-05-13T00:13:32.540Z,99630.14
2023-05-13T00:14:37.748Z,99629.13
2023-05-13T00:15:42.934Z,99631.92
2023-05-13T00:16:48.160Z,99638.11
2023-05-13T00:17:53.603Z,99632.64
2023-05-13T00:18:58.908Z,99632.41
2023-05-13T00:20:04.151Z,99641.73
2023-05-13T00:21:09.362Z,99640.27
2023-05-13T00:22:14.516Z,99637.37
2023-05-13T00:23:19.748Z,99641.2
2023-05-13T00:24:24.892Z,99641.2
2023-05-13T00:25:30.039Z,99642.66
2023-05-13T00:26:35.208Z,99642.73
2023-05-13T00:27:40.361Z,99640.88
2023-05-13T00:28:45.547Z,99633.05
2023-05-13T00:29:50.729Z,99631.7
2023-05-13T00:30:55.885Z,99633.94
2023-05-13T00:32:01.159Z,99633.05
2023-05-13T00:33:06.698Z,99633.75
2023-05-13T00:34:12.055Z,99640.88
2023-05-13T00:35:17.221Z,99642.73
2023-05-13T00:36:22.421Z,99638.19
2023-05-13T00:37:27.583Z,99636.55
2023-05-13T00:38:32.808Z,99643.25
2023-05-13T00:39:38.017Z,99635.39
2023-05-13T00:40:43.304Z,99646.76
2023-05-13T00:41:48.523Z,99636.63
2023-05-13T00:42:53.727Z,99630.84
2023-05-13T00:43:58.921Z,99641.39
2023-05-13T00:45:04.200Z,99635.61
2023-05-13T00:46:09.467Z,99637.48
2023-05-13T00:47:14.802Z,99640.65
2023-05-13T00:48:19.964Z,99641.09
2023-05-13T00:49:25.105Z,99642.44
2023-05-13T00:50:30.275Z,99644.27
2023-05-13T00:51:35.487Z,99635.58
2023-05-13T00:52:40.630Z,99642.09
2023-05-13T00:53:45.782Z,99639.42
2023-05-13T00:54:50.936Z,99640.76
2023-05-13T00:55:56.107Z,99638.27
2023-05-13T00:57:01.255Z,99645.2
2023-05-13T00:58:06.428Z,99645.2
2023-05-13T00:59:11.566Z,99643.63
2023-05-13T01:00:16.724Z,99646.72
2023-05-13T01:01:22.113Z,99641.36
2023-05-13T01:02:27.599Z,99651.59
2023-05-13T01:03:33.044Z,99648.8
2023-05-13T01:04:38.362Z,99646.01
2023-05-13T01:05:43.516Z,99645.64
2023-05-13T01:06:48.727Z,99647.58
2023-05-13T01:07:53.948Z,99647.35
2023-05-13T01:08:59.078Z,99650.86
2023-05-13T01:10:04.245Z,99653.69
2023-05-13T01:11:09.400Z,99655.44
2023-05-13T01:12:14.597Z,99652.88
2023-05-13T01:13:19.771Z,99656.38
2023-05-13T01:14:24.959Z,99655.44
2023-05-13T01:15:30.149Z,99658.08
2023-05-13T01:16:35.387Z,99663.45
2023-05-13T01:17:40.701Z,99659.06
2023-05-13T01:18:46.007Z,99660.77
2023-05-13T01:19:51.271Z,99653.39
2023-05-13T01:20:56.499Z,99664.34
2023-05-13T01:22:01.708Z,99666.13
2023-05-13T01:23:06.861Z,99663.6
2023-05-13T01:24:12.118Z,99668.37
2023-05-13T01:25:17.317Z,99667.03
2023-05-13T01:26:22.507Z,99666.62
2023-05-13T01:27:27.782Z,99665.53
2023-05-13T01:28:32.997Z,99666.17
2023-05-13T01:29:38.179Z,99668.03
2023-05-13T01:30:43.335Z,99664.61
2023-05-13T01:31:48.502Z,99666.28
2023-05-13T01:32:53.809Z,99667.52
2023-05-13T01:33:59.149Z,99666.28
2023-05-13T01:35:04.341Z,99666.06
2023-05-13T01:36:09.500Z,99666.28
2023-05-13T01:37:14.672Z,99668.55
2023-05-13T01:38:19.884Z,99661.62
2023-05-13T01:39:25.050Z,99670.6
2023-05-13T01:40:34.723Z,99673.06
2023-05-13T01:41:40.598Z,99671.31
2023-05-13T01:42:45.766Z,99671.94
2023-05-13T01:43:51.024Z,99672.25
2023-05-13T01:44:56.247Z,99674.52
2023-05-13T01:46:01.593Z,99670.78
2023-05-13T01:47:06.913Z,99676.38
2023-05-13T01:48:12.123Z,99671.5
2023-05-13T01:49:17.298Z,99674.11
2023-05-13T01:50:22.916Z,99673.7
2023-05-13T01:51:28.570Z,99675.97
2023-05-13T01:52:33.740Z,99677.31
2023-05-13T01:53:38.893Z,99679.98
2023-05-13T01:54:44.087Z,99672.95
2023-05-13T01:55:49.283Z,99678.65
2023-05-13T01:56:54.451Z,99670.45
2023-05-13T01:57:59.608Z,99677.08
2023-05-13T01:59:04.769Z,99674.06
2023-05-13T02:00:09.995Z,99669.27
2023-05-13T02:01:15.241Z,99676.79
2023-05-13T02:02:20.578Z,99679.88
2023-05-13T02:03:26.124Z,99669.03
2023-05-13T02:04:31.482Z,99674.7
2023-05-13T02:05:36.697Z,99678.65
2023-05-13T02:06:41.883Z,99681.41
2023-05-13T02:07:47.090Z,99677.39
2023-05-13T02:08:52.306Z,99679.14
2023-05-13T02:09:57.491Z,99677.5
2023-05-13T02:11:02.672Z,99678.42
2023-05-13T02:12:07.858Z,99681.52
2023-05-13T02:13:13.018Z,99672.84
2023-05-13T02:14:18.186Z,99687.81
2023-05-13T02:15:23.380Z,99683.34
2023-05-13T02:16:28.700Z,99681.3
2023-05-13T02:17:34.138Z,99675.92
2023-05-13T02:18:39.430Z,99674.59
2023-05-13T02:19:44.690Z,99679.13
2023-05-13T02:20:49.968Z,99686.95
2023-05-13T02:21:55.165Z,99689
2023-05-13T02:23:00.447Z,99683.45
2023-05-13T02:24:05.646Z,99689.23
2023-05-13T02:25:10.791Z,99686.66
2023-05-13T02:26:15.957Z,99687.25
2023-05-13T02:27:21.172Z,99686.25
2023-05-13T02:28:26.380Z,99690.76
2023-05-13T02:29:31.564Z,99689.86
2023-05-13T02:30:36.711Z,99682
2023-05-13T02:31:41.945Z,99689.63
2023-05-13T02:32:47.396Z,99684.98
2023-05-13T02:33:52.651Z,99689.86
2023-05-13T02:34:57.790Z,99690.05
2023-05-13T02:36:02.971Z,99693.88
2023-05-13T02:37:08.148Z,99694.78
2023-05-13T02:38:13.303Z,99693.96
2023-05-13T02:39:18.491Z,99694.38
2023-05-13T02:40:24.092Z,99694.14
2023-05-13T02:41:29.294Z,99686.43
2023-05-13T02:42:34.500Z,99690.45
2023-05-13T02:43:39.665Z,99695.89
2023-05-13T02:44:44.813Z,99690.23
2023-05-13T02:45:50.111Z,99697.16
2023-05-13T02:46:55.358Z,99694.14
2023-05-13T02:48:00.557Z,99695
2023-05-13T02:49:05.820Z,99697.23
2023-05-13T02:50:10.958Z,99695.07
2023-05-13T02:51:16.123Z,99695.07
2023-05-13T02:52:21.266Z,99696.11
2023-05-13T02:53:26.399Z,99695.78
2023-05-13T02:54:31.551Z,99701.96
2023-05-13T02:55:36.707Z,99701.66
2023-05-13T02:56:41.908Z,99699.2
2023-05-13T02:57:47.072Z,99700.32
2023-05-13T02:58:52.228Z,99699.8
2023-05-13T02:59:57.395Z,99702.3
2023-05-13T03:01:02.611Z,99701.25
2023-05-13T03:02:07.998Z,99704.65
2023-05-13T03:03:13.326Z,99701.96
2023-05-13T03:04:18.825Z,99706.4
2023-05-13T03:05:24.028Z,99703.83
2023-05-13T03:06:29.907Z,99705.58
2023-05-13T03:07:35.044Z,99699.8
2023-05-13T03:08:40.207Z,99702.59
2023-05-13T03:09:45.359Z,99699.91
2023-05-13T03:10:50.549Z,99700.8
2023-05-13T03:11:55.694Z,99708.36
2023-05-13T03:13:00.824Z,99706.39
2023-05-13T03:14:05.984Z,99703.48
2023-05-13T03:15:11.139Z,99706.17
2023-05-13T03:16:16.446Z,99703.3
2023-05-13T03:17:21.856Z,99703.3
2023-05-13T03:18:27.103Z,99699.87
2023-05-13T03:19:32.323Z,99701.95
2023-05-13T03:20:37.504Z,99712.47
2023-05-13T03:21:42.690Z,99710.3
2023-05-13T03:22:47.834Z,99710.41
2023-05-13T03:23:53.046Z,99713.09
2023-05-13T03:24:58.301Z,99703.59
2023-05-13T03:26:03.568Z,99709.07
2023-05-13T03:27:08.782Z,99717.42
2023-05-13T03:28:13.926Z,99716.19
2023-05-13T03:29:19.127Z,99714.84
2023-05-13T03:30:24.645Z,99715.25
2023-05-13T03:31:29.958Z,99709.66
2023-05-13T03:32:35.269Z,99709.25
2023-05-13T03:33:40.498Z,99717.19
2023-05-13T03:34:45.666Z,99714.51
2023-05-13T03:35:50.856Z,99716.38
2023-05-13T03:36:56.017Z,99713.58
2023-05-13T03:38:01.206Z,99716.89
2023-05-13T03:39:06.378Z,99719.47
2023-05-13T03:40:11.563Z,99722.14
2023-05-13T03:41:16.857Z,99718.05
2023-05-13T03:42:22.051Z,99716.48
2023-05-13T03:43:27.261Z,99721.32
2023-05-13T03:44:32.414Z,99727.51
2023-05-13T03:45:37.590Z,99727.39
2023-05-13T03:46:42.813Z,99753.92
2023-05-13T03:47:48.126Z,99724.41
2023-05-13T03:48:53.336Z,99725.42
2023-05-13T03:49:58.550Z,99725.94
2023-05-13T03:51:03.803Z,99704.45
2023-05-13T03:52:08.964Z,99732.23
2023-05-13T03:53:14.156Z,99729.14
2023-05-13T03:54:19.346Z,99731.12
2023-05-13T03:55:24.520Z,99734.32
2023-05-13T03:56:29.739Z,99735.66
2023-05-13T03:57:34.919Z,99726.75
2023-05-13T03:58:40.106Z,99735.44
2023-05-13T03:59:45.351Z,99734.81
2023-05-13T04:00:50.530Z,99737.08
2023-05-13T04:01:55.897Z,99735.92
2023-05-13T04:03:01.296Z,99744.2
2023-05-13T04:04:06.551Z,99739.53
2023-05-13T04:05:11.784Z,99737.06
2023-05-13T04:06:17.186Z,99740.28
2023-05-13T04:07:22.377Z,99732.34
2023-05-13T04:08:27.530Z,99737.59
2023-05-13T04:09:32.696Z,99730.56
2023-05-13T04:10:37.861Z,99743.66
2023-05-13T04:11:43.060Z,99735.62
2023-05-13T04:12:48.238Z,99732.23
2023-05-13T04:13:53.397Z,99738.71
2023-05-13T04:14:58.636Z,99741.73
2023-05-13T04:16:03.845Z,99737.48
2023-05-13T04:17:09.135Z,99737.19
2023-05-13T04:18:14.437Z,99741.73
2023-05-13T04:19:19.911Z,99733.05
2023-05-13T04:20:25.435Z,99741.63
2023-05-13T04:21:30.633Z,99720.09
2023-05-13T04:22:35.820Z,99743.97
2023-05-13T04:23:40.990Z,99743.14
2023-05-13T04:24:46.165Z,99743.06
2023-05-13T04:25:51.352Z,99745.83
2023-05-13T04:26:56.609Z,99744.08
2023-05-13T04:28:05.059Z,99750.78
2023-05-13T04:29:10.224Z,99750.47
2023-05-13T04:30:15.503Z,99741.58
2023-05-13T04:31:20.808Z,99753.05
2023-05-13T04:32:26.128Z,99746.64
2023-05-13T04:33:31.340Z,99751.7
2023-05-13T04:34:36.491Z,99751.81
2023-05-13T04:35:41.692Z,99758
2023-05-13T04:36:46.890Z,99758.41
2023-05-13T04:37:52.071Z,99754.27
2023-05-13T04:38:57.262Z,99751.07
2023-05-13T04:40:02.475Z,99756.73
2023-05-13T04:41:07.656Z,99750.25
2023-05-13T04:42:12.809Z,99750.25
2023-05-13T04:43:17.981Z,99752.3
2023-05-13T04:44:23.143Z,99758.08
2023-05-13T04:45:28.340Z,99762.1
2023-05-13T04:46:33.672Z,99761.61
2023-05-13T04:47:39.083Z,99757.67
2023-05-13T04:48:44.845Z,99758.08
2023-05-13T04:49:51.235Z,99760.27
2023-05-13T04:50:57.218Z,99752
2023-05-13T04:52:03.266Z,99757.18
2023-05-13T04:53:08.426Z,99753.56
2023-05-13T04:54:13.578Z,99752.48
2023-05-13T04:55:18.774Z,99757.36
2023-05-13T04:56:24.007Z,99761.28
2023-05-13T04:57:29.175Z,99758.52
2023-05-13T04:58:34.362Z,99756.33
2023-05-13T04:59:39.556Z,99760.05
2023-05-13T05:00:44.735Z,99756.84
2023-05-13T05:01:49.977Z,99759.7
2023-05-13T05:02:55.349Z,99767.05
2023-05-13T05:04:00.678Z,99757.84
2023-05-13T05:05:05.925Z,99764.37
2023-05-13T05:06:11.104Z,99760.23
2023-05-13T05:07:16.250Z,99761.05
2023-05-13T05:08:21.440Z,99755.09
2023-05-13T05:09:26.606Z,99765.64
2023-05-13T05:10:31.821Z,99759.42
2023-05-13T05:11:36.982Z,99764.37
2023-05-13T05:12:42.164Z,99765.23
2023-05-13T05:13:47.392Z,99762.95
2023-05-13T05:14:52.549Z,99765.3
2023-05-13T05:15:57.739Z,99767.39
2023-05-13T05:17:02.981Z,99769.84
2023-05-13T05:18:08.507Z,99764.89
2023-05-13T05:19:14.488Z,99766.46
2023-05-13T05:20:20.085Z,99771.41
2023-05-13T05:21:25.670Z,99777.7
2023-05-13T05:22:30.847Z,99776.78
2023-05-13T05:23:36.045Z,99775.09
2023-05-13T05:24:41.220Z,99771.93
2023-05-13T05:25:46.405Z,99775.09
2023-05-13T05:26:55.165Z,99777.7
2023-05-13T05:28:00.324Z,99772.83
2023-05-13T05:29:05.524Z,99780.8
2023-05-13T05:30:10.682Z,99777.89
2023-05-13T05:31:16.195Z,99776.78
2023-05-13T05:32:21.522Z,99770.36
2023-05-13T05:33:26.725Z,99774.09
2023-05-13T05:34:31.890Z,99775.44
2023-05-13T05:35:37.103Z,99778.19
2023-05-13T05:36:42.343Z,99781.73
2023-05-13T05:37:47.548Z,99777.7
2023-05-13T05:38:52.720Z,99783.89
2023-05-13T05:39:57.918Z,99778.42
2023-05-13T05:41:03.157Z,99778.53
2023-05-13T05:42:08.336Z,99782.45
2023-05-13T05:43:13.510Z,99783.07
2023-05-13T05:44:18.720Z,99784.64
2023-05-13T05:45:23.896Z,99775.09
2023-05-13T05:46:29.255Z,99781.1
2023-05-13T05:47:34.671Z,99774.61
2023-05-13T05:48:39.948Z,99779.27
2023-05-13T05:49:45.212Z,99779.76
2023-05-13T05:50:50.419Z,99770.7
2023-05-13T05:51:55.588Z,99772.13
2023-05-13T05:53:00.824Z,99776.67
2023-05-13T05:54:06.053Z,99781.33
2023-05-13T05:55:11.214Z,99780.09
2023-05-13T05:56:16.462Z,99778.34
2023-05-13T05:57:21.735Z,99776.9
2023-05-13T05:58:27.155Z,99777.23
2023-05-13T05:59:32.430Z,99776.72
2023-05-13T06:00:37.587Z,99784.87
2023-05-13T06:01:42.774Z,99781.84
2023-05-13T06:02:48.237Z,99778.98
2023-05-13T06:03:56.280Z,99782.08
2023-05-13T06:05:01.655Z,99787.11
2023-05-13T06:06:06.831Z,99782.78
2023-05-13T06:07:12.090Z,99780.73
2023-05-13T06:08:17.493Z,99783.42
2023-05-13T06:09:22.683Z,99780.33
2023-05-13T06:10:27.957Z,99781.02
2023-05-13T06:11:33.138Z,99778.98
2023-05-13T06:12:38.335Z,99775.38
2023-05-13T06:13:43.492Z,99785.77
2023-05-13T06:14:48.685Z,99776.72
2023-05-13T06:15:53.940Z,99781.97
2023-05-13T06:16:59.471Z,99784.02
2023-05-13T06:18:04.753Z,99784.95
2023-05-13T06:19:10.145Z,99784.87
2023-05-13T06:20:15.524Z,99781.44
2023-05-13T06:21:20.803Z,99787.96
2023-05-13T06:22:25.959Z,99785.17
2023-05-13T06:23:31.138Z,99785.36
2023-05-13T06:24:36.300Z,99786.21
2023-05-13T06:25:41.494Z,99784.34
2023-05-13T06:26:46.695Z,99787.03
2023-05-13T06:27:51.839Z,99787.44
2023-05-13T06:28:57.018Z,99782.67
2023-05-13T06:30:02.181Z,99789.19
2023-05-13T06:31:07.391Z,99789.13
2023-05-13T06:32:12.636Z,99789.19
2023-05-13T06:33:17.861Z,99787.34
2023-05-13T06:34:23.166Z,99783.08
2023-05-13T06:35:28.353Z,99788.27
2023-05-13T06:36:33.547Z,99783.94
2023-05-13T06:37:38.801Z,99775.48
2023-05-13T06:38:43.998Z,99781.97
2023-05-13T06:39:49.189Z,99777.64
2023-05-13T06:40:54.352Z,99786.44
2023-05-13T06:41:59.555Z,99774.44
2023-05-13T06:43:04.735Z,99776.82
2023-05-13T06:44:09.937Z,99772.09
2023-05-13T06:45:15.130Z,99772.28
2023-05-13T06:46:20.418Z,99776.94
2023-05-13T06:47:25.736Z,99776.02
2023-05-13T06:48:31.067Z,99774.78
2023-05-13T06:49:36.302Z,99773.33
2023-05-13T06:50:41.459Z,99777.77
2023-05-13T06:51:46.627Z,99768.79
2023-05-13T06:52:51.863Z,99775.08
2023-05-13T06:53:57.055Z,99775.49
2023-05-13T06:55:02.313Z,99773.84
2023-05-13T06:56:07.497Z,99778.1
2023-05-13T06:57:12.674Z,99776.24
2023-05-13T06:58:17.855Z,99778.52
2023-05-13T06:59:23.033Z,99777.99
2023-05-13T07:00:28.203Z,99779.52
2023-05-13T07:01:33.548Z,99777.92
2023-05-13T07:02:38.869Z,99781.5
2023-05-13T07:03:44.312Z,99783.7
2023-05-13T07:04:49.605Z,99775.65
2023-05-13T07:05:54.790Z,99773.45
2023-05-13T07:07:00.157Z,99775.54
2023-05-13T07:08:05.315Z,99779.56
2023-05-13T07:09:10.598Z,99772.41
2023-05-13T07:10:15.882Z,99780.39
2023-05-13T07:11:21.088Z,99777.41
2023-05-13T07:12:26.346Z,99778.56
2023-05-13T07:13:34.085Z,99775.13
2023-05-13T07:14:39.278Z,99775.54
2023-05-13T07:15:44.533Z,99773.37
2023-05-13T07:16:49.851Z,99770.7
2023-05-13T07:17:55.227Z,99777.11
2023-05-13T07:19:00.621Z,99773.91
2023-05-13T07:20:05.873Z,99765.86
2023-05-13T07:21:11.072Z,99775.69
2023-05-13T07:22:16.250Z,99769.48
2023-05-13T07:23:21.432Z,99767.42
2023-05-13T07:24:26.666Z,99773.42
2023-05-13T07:25:31.909Z,99765.55
2023-05-13T07:26:37.050Z,99770.22
2023-05-13T07:27:42.293Z,99766.2
2023-05-13T07:28:47.496Z,99770.74
2023-05-13T07:29:52.669Z,99766.48
2023-05-13T07:30:57.959Z,99773.02
2023-05-13T07:32:03.411Z,99768.88
2023-05-13T07:33:08.726Z,99772.91
2023-05-13T07:34:14.020Z,99773.02
2023-05-13T07:35:19.348Z,99767.72
2023-05-13T07:36:24.982Z,99767.2
2023-05-13T07:37:30.155Z,99768.88
2023-05-13T07:38:35.299Z,99769.29
2023-05-13T07:39:40.465Z,99767.2
2023-05-13T07:40:45.621Z,99773.72
2023-05-13T07:41:51.116Z,99768.55
2023-05-13T07:42:56.424Z,99766.2
2023-05-13T07:44:01.639Z,99771.97
2023-05-13T07:45:09.732Z,99770.63
2023-05-13T07:46:14.950Z,99768.36
2023-05-13T07:47:20.284Z,99777.45
2023-05-13T07:48:25.762Z,99770.74
2023-05-13T07:49:31.159Z,99774.98
2023-05-13T07:50:36.396Z,99778.57
2023-05-13T07:51:41.621Z,99768.88
2023-05-13T07:52:46.795Z,99771.67
2023-05-13T07:53:52.016Z,99775.89
2023-05-13T07:54:57.286Z,99771.87
2023-05-13T07:56:02.555Z,99774.77
2023-05-13T07:57:07.773Z,99777.23
2023-05-13T07:58:12.992Z,99776.82
2023-05-13T07:59:18.238Z,99783.52
2023-05-13T08:00:23.509Z,99774.77
2023-05-13T08:01:28.780Z,99780.02
2023-05-13T08:02:34.058Z,99782.59
2023-05-13T08:03:39.872Z,99782.59
2023-05-13T08:04:45.521Z,99775.25
2023-05-13T08:05:50.807Z,99779.72
2023-05-13T08:06:55.973Z,99779.5
2023-05-13T08:08:01.177Z,99777.03
2023-05-13T08:09:09.563Z,99784.97
2023-05-13T08:10:14.788Z,99758.7
2023-05-13T08:11:19.954Z,99783.3
2023-05-13T08:12:25.164Z,99775.25
2023-05-13T08:13:30.314Z,99780.84
2023-05-13T08:14:35.508Z,99780.54
2023-05-13T08:15:40.725Z,99776.18
2023-05-13T08:16:46.155Z,99780.36
2023-05-13T08:17:51.637Z,99773.83
2023-05-13T08:18:57.037Z,99778.68
2023-05-13T08:20:03.118Z,99775.06
2023-05-13T08:21:08.900Z,99768.98
2023-05-13T08:22:14.359Z,99779.09
2023-05-13T08:23:19.560Z,99785.09
2023-05-13T08:24:24.860Z,99785.09
2023-05-13T08:25:30.107Z,99780.66
2023-05-13T08:26:35.313Z,99778.72
2023-05-13T08:27:40.536Z,99790.8
2023-05-13T08:28:45.754Z,99785.73
2023-05-13T08:29:52.037Z,99792.88
2023-05-13T08:30:57.244Z,99785.95
2023-05-13T08:32:02.687Z,99783.91
2023-05-13T08:33:08.045Z,99790.5
2023-05-13T08:34:13.343Z,99787
2023-05-13T08:35:18.520Z,99788.75
2023-05-13T08:36:23.981Z,99788.23
2023-05-13T08:37:29.156Z,99779.7
2023-05-13T08:38:34.336Z,99773.59
2023-05-13T08:39:39.552Z,99771.83
2023-05-13T08:40:44.700Z,99769.97
2023-05-13T08:41:49.899Z,99769.05
2023-05-13T08:42:55.096Z,99773.33
2023-05-13T08:44:00.319Z,99777.77
2023-05-13T08:45:05.524Z,99764.69
2023-05-13T08:46:10.853Z,99771.39
2023-05-13T08:47:16.273Z,99772.21
2023-05-13T08:48:21.594Z,99764.5
2023-05-13T08:49:26.794Z,99769.34
2023-05-13T08:50:32.035Z,99768.41
2023-05-13T08:51:37.369Z,99765.22
2023-05-13T08:52:42.786Z,99762.13
2023-05-13T08:53:48.085Z,99765.4
2023-05-13T08:54:53.260Z,99768
2023-05-13T08:55:58.567Z,99770.91
2023-05-13T08:57:03.818Z,99770.09
2023-05-13T08:58:09.140Z,99764.92
2023-05-13T08:59:14.752Z,99761.83
2023-05-13T09:00:22.727Z,99761.75
2023-05-13T09:01:28.177Z,99755.23
2023-05-13T09:02:33.747Z,99758.14
2023-05-13T09:03:39.205Z,99747.07
2023-05-13T09:04:46.257Z,99746.06
2023-05-13T09:05:51.624Z,99753.3
2023-05-13T09:06:57.157Z,99751.43
2023-05-13T09:08:05.355Z,99750.5
2023-05-13T09:09:10.577Z,99757.44
2023-05-13T09:10:17.364Z,99760.94
2023-05-13T09:11:23.365Z,99764.55
2023-05-13T09:12:28.717Z,99764.89
2023-05-13T09:13:34.296Z,99762.92
2023-05-13T09:14:39.745Z,99760.45
2023-05-13T09:15:45.132Z,99769.14
2023-05-13T09:16:50.914Z,99757.97
2023-05-13T09:17:56.907Z,99764.19
2023-05-13T09:19:02.493Z,99765.94
2023-05-13T09:20:08.019Z,99763.66
2023-05-13T09:21:13.726Z,99758.07
2023-05-13T09:22:19.592Z,99758.7
2023-05-13T09:23:25.489Z,99747.11
2023-05-13T09:24:31.070Z,99753.67
2023-05-13T09:25:36.454Z,99749.42
2023-05-13T09:26:41.864Z,99763.48
2023-05-13T09:27:49.998Z,99755.43
2023-05-13T09:28:55.288Z,99752.64
2023-05-13T09:30:00.704Z,99744.59
2023-05-13T09:31:06.099Z,99743.58
2023-05-13T09:32:11.580Z,99748.13
2023-05-13T09:33:17.058Z,99741.72
2023-05-13T09:34:22.571Z,99743.25
2023-05-13T09:35:28.020Z,99736.05
2023-05-13T09:36:33.577Z,99743.39
2023-05-13T09:37:39.239Z,99741.13
2023-05-13T09:38:44.541Z,99742.87
2023-05-13T09:39:49.890Z,99741.94
2023-05-13T09:40:57.617Z,99741.02
2023-05-13T09:42:04.759Z,99738.44
2023-05-13T09:43:10.493Z,99737.73
2023-05-13T09:44:16.113Z,99743.1
2023-05-13T09:45:21.965Z,99747.31
2023-05-13T09:46:27.708Z,99743.7
2023-05-13T09:47:33.021Z,99748.77
2023-05-13T09:48:38.327Z,99744.25
2023-05-13T09:49:43.583Z,99739.71
2023-05-13T09:50:49.085Z,99743.73
2023-05-13T09:51:54.323Z,99749.52
2023-05-13T09:52:59.479Z,99747.98
2023-05-13T09:54:04.683Z,99752.2
2023-05-13T09:55:09.915Z,99738.78
2023-05-13T09:56:15.746Z,99737.03
2023-05-13T09:57:21.124Z,99742.1
2023-05-13T09:58:26.374Z,99745.71
2023-05-13T09:59:31.682Z,99750.56
2023-05-13T10:00:40.570Z,99747.39
2023-05-13T10:01:46.821Z,99746.88
2023-05-13T10:02:52.240Z,99735.39
2023-05-13T10:03:57.600Z,99748.1
2023-05-13T10:05:02.936Z,99739.56
2023-05-13T10:06:08.160Z,99736.44
2023-05-13T10:07:13.331Z,99742.73
2023-05-13T10:08:18.499Z,99745.64
2023-05-13T10:09:23.688Z,99737.78
2023-05-13T10:10:28.845Z,99739.86
2023-05-13T10:11:34.011Z,99751.94
2023-05-13T10:12:39.212Z,99744.08
2023-05-13T10:13:44.440Z,99749.55
2023-05-13T10:14:49.638Z,99758.23
2023-05-13T10:15:54.959Z,99753.88
2023-05-13T10:17:00.336Z,99760.59
2023-05-13T10:18:08.653Z,99747.62
2023-05-13T10:19:14.142Z,99753.39
2023-05-13T10:20:19.537Z,99750.37
2023-05-13T10:21:24.997Z,99753.47
2023-05-13T10:22:30.191Z,99748.63
2023-05-13T10:23:35.419Z,99722.67
2023-05-13T10:24:40.637Z,99749.14
2023-05-13T10:25:45.822Z,99748.63
2023-05-13T10:26:51.070Z,99756.16
2023-05-13T10:27:56.261Z,99750.78
2023-05-13T10:29:01.427Z,99748.92
2023-05-13T10:30:06.819Z,99754.51
2023-05-13T10:31:12.151Z,99747.39
2023-05-13T10:32:17.523Z,99751.83
2023-05-13T10:33:23.168Z,99754.09
2023-05-13T10:34:28.631Z,99744.7
2023-05-13T10:35:38.699Z,99740.68
2023-05-13T10:36:47.027Z,99745.19
2023-05-13T10:37:52.205Z,99755.52
2023-05-13T10:38:57.468Z,99746.53
2023-05-13T10:40:04.980Z,99751.91
2023-05-13T10:41:10.308Z,99748.09
2023-05-13T10:42:15.527Z,99746.42
2023-05-13T10:43:20.732Z,99747.88
2023-05-13T10:44:25.933Z,99747.47
2023-05-13T10:45:31.103Z,99748.81
2023-05-13T10:46:36.403Z,99747.05
2023-05-13T10:47:41.996Z,99746.83
2023-05-13T10:48:47.559Z,99743.44
2023-05-13T10:49:52.825Z,99743.55
2023-05-13T10:50:58.015Z,99749.33
2023-05-13T10:52:03.245Z,99748.92
2023-05-13T10:53:08.463Z,99751.19
2023-05-13T10:54:13.611Z,99747.98
2023-05-13T10:55:18.899Z,99739.6
2023-05-13T10:56:24.167Z,99749.73
2023-05-13T10:57:29.358Z,99740.53
2023-05-13T10:58:34.535Z,99739.71
2023-05-13T10:59:39.692Z,99743.55
2023-05-13T11:00:44.916Z,99743.63
2023-05-13T11:01:53.151Z,99747.58
2023-05-13T11:02:58.809Z,99748.92
2023-05-13T11:04:04.827Z,99754.28
2023-05-13T11:05:10.430Z,99751.6
2023-05-13T11:06:15.631Z,99742.73
2023-05-13T11:07:20.832Z,99739.11
2023-05-13T11:08:26.115Z,99731.06
2023-05-13T11:09:31.311Z,99729.2
2023-05-13T11:10:36.591Z,99729.39
2023-05-13T11:11:41.784Z,99732.89
2023-05-13T11:12:46.966Z,99734.98
2023-05-13T11:13:52.166Z,99727.11
2023-05-13T11:14:57.380Z,99726.11
2023-05-13T11:16:02.717Z,99727.64
2023-05-13T11:17:07.972Z,99723.83
2023-05-13T11:18:13.271Z,99724.02
2023-05-13T11:19:18.613Z,99716.3
2023-05-13T11:20:24.215Z,99728.05
2023-05-13T11:21:29.468Z,99718.98
2023-05-13T11:22:34.658Z,99722.67
2023-05-13T11:23:39.847Z,99723.72
2023-05-13T11:24:45.016Z,99731.29
2023-05-13T11:25:50.169Z,99728.6
2023-05-13T11:26:55.388Z,99718.77
2023-05-13T11:28:00.577Z,99724.14
2023-05-13T11:29:05.760Z,99722.08
2023-05-13T11:30:11.120Z,99724.98
2023-05-13T11:31:16.685Z,99731.18
2023-05-13T11:32:22.016Z,99726.92
2023-05-13T11:33:27.220Z,99723.65
2023-05-13T11:34:32.452Z,99724.88
2023-05-13T11:35:37.676Z,99716.2
2023-05-13T11:36:42.949Z,99721.04
2023-05-13T11:37:48.265Z,99722.91
2023-05-13T11:38:53.620Z,99726.14
2023-05-13T11:39:58.877Z,99722.94
2023-05-13T11:41:04.327Z,99720.03
2023-05-13T11:42:09.895Z,99725.63
2023-05-13T11:43:15.295Z,99726.55
2023-05-13T11:44:20.487Z,99728.91
2023-05-13T11:45:26.311Z,99731.3
2023-05-13T11:46:32.023Z,99722.49
2023-05-13T11:47:37.634Z,99728.12
2023-05-13T11:48:43.099Z,99722.64
2023-05-13T11:49:48.937Z,99732.45
2023-05-13T11:50:54.427Z,99736.39
2023-05-13T11:51:59.803Z,99731.63
2023-05-13T11:53:05.167Z,99734.64
2023-05-13T11:54:10.445Z,99723.58
2023-05-13T11:55:16.105Z,99725.84
2023-05-13T11:56:21.646Z,99734.13
2023-05-13T11:57:26.945Z,99729.17
2023-05-13T11:58:32.186Z,99728.34
2023-05-13T11:59:49.260Z,99729.47
2023-05-13T12:00:54.526Z,99729.47
2023-05-13T12:01:59.886Z,99723.98
2023-05-13T12:03:05.600Z,99724.09
2023-05-13T12:04:11.205Z,99719.17
2023-05-13T12:05:16.558Z,99723.8
2023-05-13T12:06:22.171Z,99725.78
2023-05-13T12:07:27.719Z,99736.1
2023-05-13T12:08:33.071Z,99727.3
2023-05-13T12:09:38.396Z,99730.73
2023-05-13T12:10:43.775Z,99732.48
2023-05-13T12:11:49.106Z,99727.3
2023-05-13T12:12:54.325Z,99723.61
2023-05-13T12:13:59.533Z,99728.56
2023-05-13T12:15:04.790Z,99724.95
2023-05-13T12:16:10.067Z,99730.21
2023-05-13T12:17:15.351Z,99728.45
2023-05-13T12:18:20.535Z,99722.68
2023-05-13T12:19:25.708Z,99724.44
2023-05-13T12:20:30.963Z,99715.23
2023-05-13T12:21:36.200Z,99723.09
2023-05-13T12:22:41.698Z,99722.16
2023-05-13T12:23:46.988Z,99716.38
2023-05-13T12:24:52.525Z,99718.66
2023-05-13T12:25:57.720Z,99719.06
2023-05-13T12:27:03.138Z,99723.91
2023-05-13T12:28:08.493Z,99717.91
2023-05-13T12:29:13.670Z,99724.33
2023-05-13T12:30:18.874Z,99719.25
2023-05-13T12:31:24.122Z,99721.94
2023-05-13T12:32:29.489Z,99724.84
2023-05-13T12:33:34.767Z,99724.33
2023-05-13T12:34:40.075Z,99722.98
2023-05-13T12:35:45.431Z,99722.98
2023-05-13T12:36:50.894Z,99718.47
2023-05-13T12:37:56.148Z,99719.59
2023-05-13T12:39:02.669Z,99722.8
2023-05-13T12:40:08.158Z,99734.05
2023-05-13T12:41:13.458Z,99725.48
2023-05-13T12:42:18.788Z,99731.7
2023-05-13T12:43:23.978Z,99724.06
2023-05-13T12:44:29.396Z,99720.3
2023-05-13T12:45:35.139Z,99725.89
2023-05-13T12:46:42.978Z,99715.67
2023-05-13T12:47:48.262Z,99720.44
2023-05-13T12:48:53.648Z,99719.52
2023-05-13T12:49:58.929Z,99716.2
2023-05-13T12:51:04.119Z,99720.44